createdAt,value
2023-07-15T00:01:37.730Z,20.37
2023-07-15T00:04:05.830Z,20.58
2023-07-15T00:06:32.828Z,20.67
2023-07-15T00:09:00.253Z,20.24
2023-07-15T00:11:31.746Z,20.18
2023-07-15T00:13:59.494Z,20.45
2023-07-15T00:16:31.166Z,20.63
2023-07-15T00:18:58.501Z,20.72
2023-07-15T00:21:32.151Z,20.72
2023-07-15T00:24:01.778Z,20.48
2023-07-15T00:26:35.782Z,20.78
2023-07-15T00:29:05.545Z,20.37
2023-07-15T00:31:33.913Z,18.94
2023-07-15T00:34:01.426Z,19.37
2023-07-15T00:36:28.360Z,20.11
2023-07-15T00:38:55.157Z,20.41
2023-07-15T00:41:28.402Z,20.36
2023-07-15T00:43:59.970Z,19.90
2023-07-15T00:46:58.299Z,20.20
2023-07-15T00:49:31.877Z,20.46
2023-07-15T00:52:06.137Z,20.58
2023-07-15T00:54:35.631Z,20.46
2023-07-15T00:57:02.632Z,20.18
2023-07-15T00:59:30.907Z,20.37
2023-07-15T01:01:58.026Z,20.40
2023-07-15T01:04:24.975Z,20.33
2023-07-15T01:06:51.996Z,20.12
2023-07-15T01:09:18.894Z,20.43
2023-07-15T01:11:45.812Z,20.65
2023-07-15T01:14:14.299Z,20.39
2023-07-15T01:16:42.204Z,20.41
2023-07-15T01:19:10.022Z,20.39
2023-07-15T01:21:37.991Z,19.96
2023-07-15T01:24:05.200Z,19.89
2023-07-15T01:26:32.784Z,20.10
2023-07-15T01:28:59.845Z,20.61
2023-07-15T01:31:28.191Z,20.49
2023-07-15T01:33:55.215Z,20.26
2023-07-15T01:36:22.202Z,20.21
2023-07-15T01:38:49.417Z,20.39
2023-07-15T01:41:16.338Z,20.31
2023-07-15T01:43:43.253Z,20.15
2023-07-15T01:48:37.891Z,20.62
2023-07-15T01:51:04.776Z,20.27
2023-07-15T01:53:31.652Z,20.46
2023-07-15T01:55:58.536Z,20.42
2023-07-15T01:58:25.411Z,19.80
2023-07-15T02:00:52.367Z,19.31
2023-07-15T02:03:19.393Z,19.61
2023-07-15T02:05:46.586Z,19.67
2023-07-15T02:08:13.558Z,19.93
2023-07-15T02:10:40.417Z,20.04
2023-07-15T02:13:07.249Z,19.83
2023-07-15T02:15:34.188Z,20.11
2023-07-15T02:18:01.213Z,20.09
2023-07-15T02:20:28.091Z,20.11
2023-07-15T02:22:54.991Z,19.76
2023-07-15T02:25:22.001Z,19.84
2023-07-15T02:27:51.053Z,20.05
2023-07-15T02:30:18.152Z,19.83
2023-07-15T02:32:45.429Z,19.84
2023-07-15T02:35:14.993Z,19.89
2023-07-15T02:37:45.239Z,19.82
2023-07-15T02:40:12.748Z,19.85
2023-07-15T02:42:40.116Z,20.14
2023-07-15T02:45:09.287Z,19.88
2023-07-15T02:47:38.175Z,19.73
2023-07-15T02:50:07.927Z,19.94
2023-07-15T02:52:36.212Z,19.92
2023-07-15T02:55:10.428Z,20.02
2023-07-15T02:57:37.355Z,20.04
2023-07-15T03:00:13.113Z,20.32
2023-07-15T03:02:40.520Z,20.12
2023-07-15T03:05:07.997Z,20.50
2023-07-15T03:07:35.563Z,19.89
2023-07-15T03:10:03.552Z,19.72
2023-07-15T03:12:30.397Z,20.25
2023-07-15T03:14:57.372Z,20.19
2023-07-15T03:17:24.256Z,20.11
2023-07-15T03:19:51.177Z,19.93
2023-07-15T03:22:18.472Z,19.62
2023-07-15T03:24:45.421Z,19.44
2023-07-15T03:27:12.282Z,19.84
2023-07-15T03:29:39.184Z,19.74
2023-07-15T03:32:06.183Z,19.82
2023-07-15T03:34:33.141Z,19.63
2023-07-15T03:37:00.144Z,19.78
2023-07-15T03:39:27.066Z,20.08
2023-07-15T03:41:53.921Z,20.15
2023-07-15T03:44:20.831Z,19.92
2023-07-15T03:46:47.919Z,19.98
2023-07-15T03:49:14.937Z,20.26
2023-07-15T03:51:41.871Z,20.59
2023-07-15T03:54:08.785Z,20.70
2023-07-15T03:56:35.718Z,20.97
2023-07-15T03:59:02.864Z,21.56
2023-07-15T04:01:29.899Z,21.89
2023-07-15T04:03:56.879Z,21.99
2023-07-15T04:06:24.805Z,22.49
2023-07-15T04:08:51.750Z,23.00
2023-07-15T04:11:19.262Z,23.71
2023-07-15T04:13:46.519Z,24.24
2023-07-15T04:16:14.222Z,25.08
2023-07-15T04:18:41.573Z,25.73
2023-07-15T04:21:08.513Z,26.64
2023-07-15T04:23:35.505Z,27.28
2023-07-15T04:26:03.426Z,27.79
2023-07-15T04:28:30.297Z,28.68
2023-07-15T04:30:57.585Z,29.33
2023-07-15T04:33:24.511Z,30.08
2023-07-15T04:35:51.570Z,30.26
2023-07-15T04:38:21.759Z,30.71
2023-07-15T04:40:48.647Z,31.24
2023-07-15T04:43:15.535Z,31.91
2023-07-15T04:45:42.495Z,31.98
2023-07-15T04:48:10.107Z,32.17
2023-07-15T04:50:37.497Z,32.62
2023-07-15T04:53:04.389Z,33.20
2023-07-15T04:55:31.258Z,33.85
2023-07-15T04:57:58.207Z,33.24
2023-07-15T05:00:25.041Z,33.72
2023-07-15T05:02:52.396Z,34.55
2023-07-15T05:05:19.326Z,34.54
2023-07-15T05:07:57.603Z,33.38
2023-07-15T05:10:26.121Z,32.32
2023-07-15T05:12:53.083Z,31.72
2023-07-15T05:15:20.078Z,33.08
2023-07-15T05:17:47.035Z,33.70
2023-07-15T05:20:18.038Z,33.28
2023-07-15T05:22:44.969Z,34.07
2023-07-15T05:25:15.243Z,34.91
2023-07-15T05:27:42.311Z,35.19
2023-07-15T05:30:10.211Z,35.08
2023-07-15T05:32:37.850Z,35.46
2023-07-15T05:35:05.463Z,35.57
2023-07-15T05:37:32.418Z,34.95
2023-07-15T05:39:59.312Z,34.53
2023-07-15T05:42:26.236Z,34.18
2023-07-15T05:44:53.126Z,34.46
2023-07-15T05:47:21.102Z,34.70
2023-07-15T05:49:48.518Z,34.40
2023-07-15T05:52:15.491Z,34.61
2023-07-15T05:54:42.411Z,34.72
2023-07-15T05:57:10.095Z,34.86
2023-07-15T05:59:37.022Z,34.47
2023-07-15T06:02:04.109Z,34.12
2023-07-15T06:04:31.096Z,33.76
2023-07-15T06:06:58.171Z,33.88
2023-07-15T06:09:25.081Z,34.11
2023-07-15T06:11:51.989Z,34.09
2023-07-15T06:14:18.876Z,34.11
2023-07-15T06:16:45.810Z,33.81
2023-07-15T06:19:12.754Z,33.67
2023-07-15T06:21:41.837Z,33.58
2023-07-15T06:24:08.951Z,33.18
2023-07-15T06:26:35.938Z,32.63
2023-07-15T06:29:05.742Z,32.45
2023-07-15T06:31:32.651Z,32.13
2023-07-15T06:33:59.595Z,31.37
2023-07-15T06:36:26.505Z,31.88
2023-07-15T06:38:53.364Z,31.86
2023-07-15T06:41:20.299Z,31.55
2023-07-15T06:43:47.187Z,31.68
2023-07-15T06:46:14.082Z,31.52
2023-07-15T06:48:41.009Z,31.83
2023-07-15T06:51:07.973Z,31.93
2023-07-15T06:53:34.859Z,31.51
2023-07-15T06:56:18.140Z,31.98
2023-07-15T06:58:46.769Z,31.68
2023-07-15T07:01:14.003Z,31.43
2023-07-15T07:03:41.193Z,31.46
2023-07-15T07:06:08.210Z,31.38
2023-07-15T07:08:35.250Z,31.00
2023-07-15T07:11:02.565Z,31.18
2023-07-15T07:13:29.642Z,30.81
2023-07-15T07:15:59.938Z,30.94
2023-07-15T07:18:27.351Z,30.67
2023-07-15T07:21:00.271Z,30.89
2023-07-15T07:23:27.418Z,31.42
2023-07-15T07:25:54.548Z,31.13
2023-07-15T07:28:27.848Z,31.40
2023-07-15T07:30:55.005Z,31.18
2023-07-15T07:33:21.910Z,31.50
2023-07-15T07:35:48.842Z,31.84
2023-07-15T07:38:15.751Z,32.17
2023-07-15T07:40:47.542Z,31.93
2023-07-15T07:43:14.493Z,32.25
2023-07-15T07:45:41.476Z,32.14
2023-07-15T07:48:08.489Z,32.00
2023-07-15T07:50:36.750Z,31.69
2023-07-15T07:53:03.682Z,31.73
2023-07-15T07:55:30.599Z,31.68
2023-07-15T07:57:57.841Z,32.00
2023-07-15T08:00:24.681Z,31.85
2023-07-15T08:02:51.641Z,31.71
2023-07-15T08:05:19.370Z,31.61
2023-07-15T08:07:46.306Z,31.46
2023-07-15T08:10:13.198Z,31.11
2023-07-15T08:12:40.085Z,31.89
2023-07-15T08:15:08.933Z,31.92
2023-07-15T08:17:37.273Z,31.63
2023-07-15T08:20:05.194Z,31.89
2023-07-15T08:22:32.137Z,31.98
2023-07-15T08:24:59.036Z,32.12
2023-07-15T08:27:25.901Z,31.29
2023-07-15T08:29:52.959Z,31.92
2023-07-15T08:32:19.900Z,31.60
2023-07-15T08:35:04.430Z,31.73
2023-07-15T08:37:31.704Z,31.93
2023-07-15T08:39:58.569Z,32.03
2023-07-15T08:42:25.716Z,31.76
2023-07-15T08:44:52.909Z,31.75
2023-07-15T08:47:21.871Z,31.64
2023-07-15T08:49:50.080Z,31.71
2023-07-15T08:52:22.009Z,32.32
2023-07-15T08:54:50.139Z,31.79
2023-07-15T08:57:21.553Z,31.61
2023-07-15T08:59:49.989Z,31.24
2023-07-15T09:02:17.271Z,32.67
2023-07-15T09:04:44.205Z,32.68
2023-07-15T09:07:11.138Z,32.74
2023-07-15T09:09:39.925Z,32.74
2023-07-15T09:12:11.311Z,32.08
2023-07-15T09:14:52.760Z,32.08
2023-07-15T09:17:21.828Z,32.28
2023-07-15T09:19:49.336Z,32.54
2023-07-15T09:22:17.141Z,32.62
2023-07-15T09:24:44.168Z,32.54
2023-07-15T09:27:11.287Z,32.52
2023-07-15T09:29:38.467Z,32.39
2023-07-15T09:32:07.590Z,32.35
2023-07-15T09:34:40.474Z,32.30
2023-07-15T09:37:07.480Z,32.41
2023-07-15T09:39:34.376Z,32.51
2023-07-15T09:42:05.668Z,32.88
2023-07-15T09:44:45.190Z,32.64
2023-07-15T09:47:12.091Z,33.06
2023-07-15T09:49:39.235Z,32.48
2023-07-15T09:52:07.343Z,32.80
2023-07-15T09:54:35.012Z,32.67
2023-07-15T09:57:05.628Z,32.07
2023-07-15T09:59:38.328Z,32.87
2023-07-15T10:02:06.973Z,33.38
2023-07-15T10:04:39.101Z,33.82
2023-07-15T10:07:06.400Z,34.01
2023-07-15T10:09:33.304Z,33.96
2023-07-15T10:12:01.301Z,33.51
2023-07-15T10:14:31.509Z,33.24
2023-07-15T10:17:16.936Z,33.61
2023-07-15T10:19:51.921Z,33.15
2023-07-15T10:22:22.496Z,33.26
2023-07-15T10:24:57.370Z,32.89
2023-07-15T10:27:31.614Z,33.61
2023-07-15T10:30:17.422Z,33.40
2023-07-15T10:33:13.983Z,34.06
2023-07-15T10:35:43.936Z,34.06
2023-07-15T10:38:21.099Z,34.41
2023-07-15T10:40:57.668Z,34.50
2023-07-15T10:43:36.825Z,34.76
2023-07-15T10:46:09.056Z,34.69
2023-07-15T10:48:36.477Z,34.46
2023-07-15T10:51:10.393Z,34.96
2023-07-15T10:53:37.936Z,34.26
2023-07-15T10:56:06.264Z,34.03
2023-07-15T10:58:34.803Z,33.59
2023-07-15T11:01:04.924Z,34.08
2023-07-15T11:03:33.904Z,33.70
2023-07-15T11:06:03.090Z,33.72
2023-07-15T11:08:31.406Z,33.72
2023-07-15T11:11:02.048Z,33.71
2023-07-15T11:13:29.362Z,33.78
2023-07-15T11:15:56.968Z,34.22
2023-07-15T11:18:25.626Z,34.03
2023-07-15T11:21:00.246Z,34.77
2023-07-15T11:23:31.324Z,33.93
2023-07-15T11:25:58.931Z,33.51
2023-07-15T11:28:26.176Z,33.31
2023-07-15T11:30:53.380Z,33.82
2023-07-15T11:33:20.426Z,33.85
2023-07-15T11:35:47.785Z,34.34
2023-07-15T11:38:16.269Z,34.46
2023-07-15T11:41:09.589Z,34.51
2023-07-15T11:43:36.454Z,33.93
2023-07-15T11:46:03.459Z,33.92
2023-07-15T11:48:33.003Z,33.95
2023-07-15T11:51:09.774Z,33.40
2023-07-15T11:53:39.044Z,33.50
2023-07-15T11:56:09.844Z,33.59
2023-07-15T11:58:39.777Z,34.06
2023-07-15T12:01:07.257Z,33.41
2023-07-15T12:03:34.262Z,33.54
2023-07-15T12:06:01.307Z,33.30
2023-07-15T12:08:28.327Z,33.22
2023-07-15T12:10:56.351Z,33.42
2023-07-15T12:13:23.551Z,33.88
2023-07-15T12:15:50.409Z,33.81
2023-07-15T12:18:17.623Z,33.34
2023-07-15T12:20:44.528Z,33.05
2023-07-15T12:23:11.386Z,33.42
2023-07-15T12:25:38.321Z,33.84
2023-07-15T12:28:05.431Z,33.92
2023-07-15T12:30:32.312Z,33.91
2023-07-15T12:32:59.286Z,33.94
2023-07-15T12:35:26.233Z,33.75
2023-07-15T12:37:53.108Z,33.48
2023-07-15T12:40:19.990Z,33.28
2023-07-15T12:42:46.892Z,33.25
2023-07-15T12:45:16.276Z,33.17
2023-07-15T12:47:43.283Z,33.37
2023-07-15T12:50:10.553Z,32.73
2023-07-15T12:52:37.485Z,32.98
2023-07-15T12:55:06.230Z,32.98
2023-07-15T12:57:33.121Z,33.15
2023-07-15T12:59:59.977Z,33.11
2023-07-15T13:02:27.040Z,33.26
2023-07-15T13:04:54.020Z,33.56
2023-07-15T13:07:23.034Z,33.52
2023-07-15T13:09:50.004Z,33.46
2023-07-15T13:12:16.906Z,33.27
2023-07-15T13:14:43.747Z,33.19
2023-07-15T13:17:10.626Z,33.19
2023-07-15T13:19:37.498Z,33.02
2023-07-15T13:22:04.637Z,33.16
2023-07-15T13:24:31.542Z,33.28
2023-07-15T13:26:58.438Z,33.32
2023-07-15T13:29:25.460Z,33.37
2023-07-15T13:31:52.422Z,33.55
2023-07-15T13:34:19.336Z,33.86
2023-07-15T13:36:47.207Z,33.67
2023-07-15T13:39:35.014Z,33.67
2023-07-15T13:42:02.035Z,33.54
2023-07-15T13:44:29.110Z,33.27
2023-07-15T13:46:56.035Z,33.39
2023-07-15T13:49:22.886Z,33.59
2023-07-15T13:51:49.810Z,33.37
2023-07-15T13:54:17.133Z,33.64
2023-07-15T13:56:44.011Z,33.37
2023-07-15T13:59:10.901Z,33.21
2023-07-15T14:01:37.780Z,33.64
2023-07-15T14:04:06.568Z,33.72
2023-07-15T14:06:33.561Z,33.96
2023-07-15T14:09:00.434Z,33.34
2023-07-15T14:11:27.559Z,33.28
2023-07-15T14:13:54.646Z,33.71
2023-07-15T14:16:21.719Z,33.50
2023-07-15T14:18:48.592Z,33.34
2023-07-15T14:21:15.801Z,33.54
2023-07-15T14:23:42.993Z,33.33
2023-07-15T14:26:09.907Z,33.28
2023-07-15T14:28:37.682Z,33.24
2023-07-15T14:31:04.586Z,33.50
2023-07-15T14:33:31.535Z,33.59
2023-07-15T14:35:59.087Z,33.73
2023-07-15T14:38:26.054Z,33.62
2023-07-15T14:40:53.034Z,33.63
2023-07-15T14:43:19.980Z,33.48
2023-07-15T14:45:47.059Z,32.96
2023-07-15T14:48:13.942Z,32.98
2023-07-15T14:50:40.989Z,33.00
2023-07-15T14:53:08.575Z,32.97
2023-07-15T14:55:35.949Z,32.98
2023-07-15T14:58:03.129Z,33.12
2023-07-15T15:00:30.284Z,32.83
2023-07-15T15:02:57.355Z,33.25
2023-07-15T15:05:25.196Z,33.45
2023-07-15T15:07:52.078Z,33.18
2023-07-15T15:10:19.004Z,33.04
2023-07-15T15:12:45.899Z,32.97
2023-07-15T15:15:12.785Z,32.94
2023-07-15T15:17:39.712Z,32.78
2023-07-15T15:20:07.684Z,32.77
2023-07-15T15:22:34.628Z,32.46
2023-07-15T15:25:04.398Z,32.72
2023-07-15T15:27:31.671Z,33.14
2023-07-15T15:29:58.562Z,33.17
2023-07-15T15:32:25.649Z,32.95
2023-07-15T15:34:52.644Z,32.78
2023-07-15T15:37:19.636Z,32.87
2023-07-15T15:39:46.640Z,33.21
2023-07-15T15:42:13.518Z,32.83
2023-07-15T15:44:40.442Z,32.63
2023-07-15T15:47:08.133Z,33.13
2023-07-15T15:49:35.000Z,32.70
2023-07-15T15:52:01.881Z,32.49
2023-07-15T15:54:28.806Z,32.51
2023-07-15T15:56:56.208Z,32.74
2023-07-15T15:59:23.204Z,32.81
2023-07-15T16:01:50.104Z,32.62
2023-07-15T16:04:17.081Z,32.52
2023-07-15T16:06:44.120Z,32.54
2023-07-15T16:09:11.141Z,32.45
2023-07-15T16:11:39.265Z,32.44
2023-07-15T16:14:06.233Z,32.48
2023-07-15T16:16:33.195Z,32.49
2023-07-15T16:19:01.977Z,32.47
2023-07-15T16:21:28.869Z,31.92
2023-07-15T16:23:55.720Z,32.24
2023-07-15T16:26:22.687Z,32.43
2023-07-15T16:28:49.623Z,32.13
2023-07-15T16:31:16.820Z,32.51
2023-07-15T16:33:44.098Z,32.17
2023-07-15T16:36:10.952Z,32.42
2023-07-15T16:38:37.886Z,31.93
2023-07-15T16:41:04.755Z,31.84
2023-07-15T16:43:31.664Z,31.93
2023-07-15T16:45:58.596Z,31.89
2023-07-15T16:48:25.509Z,31.75
2023-07-15T16:50:52.392Z,31.92
2023-07-15T16:53:19.334Z,32.02
2023-07-15T16:55:46.232Z,31.89
2023-07-15T16:58:13.133Z,31.91
2023-07-15T17:00:40.031Z,31.92
2023-07-15T17:03:07.044Z,32.07
2023-07-15T17:05:34.000Z,32.01
2023-07-15T17:08:01.001Z,31.80
2023-07-15T17:10:27.903Z,31.73
2023-07-15T17:12:54.758Z,31.61
2023-07-15T17:15:21.672Z,31.93
2023-07-15T17:17:48.601Z,31.81
2023-07-15T17:20:15.493Z,32.17
2023-07-15T17:22:42.436Z,31.73
2023-07-15T17:25:09.784Z,32.15
2023-07-15T17:27:36.786Z,31.88
2023-07-15T17:30:04.053Z,31.77
2023-07-15T17:32:30.958Z,32.02
2023-07-15T17:34:57.892Z,31.58
2023-07-15T17:37:28.415Z,31.77
2023-07-15T17:39:55.579Z,31.58
2023-07-15T17:42:22.488Z,31.55
2023-07-15T17:44:49.393Z,31.75
2023-07-15T17:47:16.420Z,31.53
2023-07-15T17:49:43.335Z,31.46
2023-07-15T17:52:10.409Z,31.48
2023-07-15T17:54:37.304Z,31.02
2023-07-15T17:57:04.424Z,31.34
2023-07-15T17:59:31.307Z,31.13
2023-07-15T18:01:58.203Z,31.26
2023-07-15T18:04:25.108Z,31.21
2023-07-15T18:06:51.993Z,31.08
2023-07-15T18:09:19.017Z,31.01
2023-07-15T18:11:45.904Z,30.92
2023-07-15T18:14:12.802Z,30.92
2023-07-15T18:16:39.774Z,30.83
2023-07-15T18:19:06.730Z,31.11
2023-07-15T18:21:33.598Z,30.80
2023-07-15T18:24:00.442Z,31.12
2023-07-15T18:26:27.292Z,30.43
2023-07-15T18:28:54.158Z,30.72
2023-07-15T18:31:21.164Z,30.64
2023-07-15T18:33:48.070Z,30.83
2023-07-15T18:36:14.945Z,30.52
2023-07-15T18:38:41.882Z,30.37
2023-07-15T18:41:08.761Z,30.07
2023-07-15T18:43:35.638Z,30.01
2023-07-15T18:46:02.520Z,29.98
2023-07-15T18:48:29.463Z,29.73
2023-07-15T18:50:56.348Z,29.79
2023-07-15T18:53:23.210Z,29.64
2023-07-15T18:55:50.171Z,29.58
2023-07-15T18:58:17.276Z,29.45
2023-07-15T19:00:44.158Z,29.67
2023-07-15T19:03:11.182Z,29.48
2023-07-15T19:05:39.098Z,29.53
2023-07-15T19:08:06.097Z,29.19
2023-07-15T19:10:33.019Z,29.28
2023-07-15T19:12:59.921Z,29.12
2023-07-15T19:15:26.837Z,28.74
2023-07-15T19:17:53.777Z,29.02
2023-07-15T19:20:20.766Z,29.07
2023-07-15T19:22:47.643Z,29.00
2023-07-15T19:25:14.576Z,28.77
2023-07-15T19:27:41.468Z,28.71
2023-07-15T19:30:08.972Z,28.89
2023-07-15T19:32:36.015Z,29.01
2023-07-15T19:35:02.968Z,28.86
2023-07-15T19:37:29.869Z,29.05
2023-07-15T19:39:56.815Z,28.39
2023-07-15T19:42:23.737Z,29.18
2023-07-15T19:44:50.593Z,28.96
2023-07-15T19:47:17.554Z,28.53
2023-07-15T19:49:44.517Z,28.49
2023-07-15T19:52:11.434Z,28.24
2023-07-15T19:54:38.323Z,28.57
2023-07-15T19:57:05.585Z,28.56
2023-07-15T19:59:32.714Z,28.62
2023-07-15T20:01:59.695Z,28.98
2023-07-15T20:04:26.654Z,28.63
2023-07-15T20:06:55.750Z,28.59
2023-07-15T20:09:24.112Z,28.47
2023-07-15T20:11:55.511Z,28.62
2023-07-15T20:14:22.592Z,28.65
2023-07-15T20:16:49.559Z,28.84
2023-07-15T20:19:16.583Z,28.32
2023-07-15T20:21:43.513Z,28.61
2023-07-15T20:24:10.413Z,28.31
2023-07-15T20:26:37.315Z,28.14
2023-07-15T20:29:04.148Z,28.44
2023-07-15T20:31:31.035Z,28.33
2023-07-15T20:33:57.999Z,28.19
2023-07-15T20:36:24.842Z,28.28
2023-07-15T20:38:51.776Z,28.09
2023-07-15T20:41:20.251Z,28.15
2023-07-15T20:43:47.218Z,28.32
2023-07-15T20:46:14.374Z,28.05
2023-07-15T20:48:41.628Z,28.31
2023-07-15T20:51:09.667Z,28.37
2023-07-15T20:53:36.700Z,28.16
2023-07-15T20:56:03.720Z,28.02
2023-07-15T20:58:30.640Z,27.77
2023-07-15T21:00:57.511Z,27.64
2023-07-15T21:03:24.457Z,27.73
2023-07-15T21:06:05.182Z,27.56
2023-07-15T21:08:32.473Z,27.98
2023-07-15T21:11:01.017Z,27.82
2023-07-15T21:13:28.706Z,27.96
2023-07-15T21:15:55.822Z,27.30
2023-07-15T21:18:24.749Z,26.81
2023-07-15T21:20:52.226Z,25.91
2023-07-15T21:23:19.439Z,26.29
2023-07-15T21:25:47.469Z,26.20
2023-07-15T21:28:14.377Z,26.29
2023-07-15T21:30:45.040Z,26.36
2023-07-15T21:33:11.979Z,26.54
2023-07-15T21:35:38.877Z,25.97
2023-07-15T21:38:05.765Z,25.93
2023-07-15T21:40:33.801Z,26.36
2023-07-15T21:43:00.960Z,26.23
2023-07-15T21:45:27.823Z,26.17
2023-07-15T21:47:54.712Z,26.71
2023-07-15T21:50:21.644Z,26.03
2023-07-15T21:52:48.518Z,25.67
2023-07-15T21:55:15.469Z,25.74
2023-07-15T21:57:42.356Z,25.70
2023-07-15T22:00:15.510Z,25.71
2023-07-15T22:02:43.305Z,25.17
2023-07-15T22:05:10.902Z,25.16
2023-07-15T22:07:38.172Z,24.49
2023-07-15T22:10:06.208Z,24.47
2023-07-15T22:12:33.825Z,24.63
2023-07-15T22:15:01.029Z,24.41
2023-07-15T22:17:27.996Z,23.60
2023-07-15T22:19:54.945Z,23.86
2023-07-15T22:22:21.903Z,23.82
2023-07-15T22:24:49.610Z,23.43
2023-07-15T22:27:17.124Z,23.86
2023-07-15T22:29:44.302Z,24.19
2023-07-15T22:32:11.277Z,23.74
2023-07-15T22:34:38.200Z,23.75
2023-07-15T22:37:06.223Z,24.91
2023-07-15T22:39:33.583Z,25.03
2023-07-15T22:42:00.566Z,25.14
2023-07-15T22:44:27.479Z,24.57
2023-07-15T22:46:54.430Z,24.05
2023-07-15T22:49:21.360Z,24.62
2023-07-15T22:51:48.230Z,24.36
2023-07-15T22:54:15.137Z,24.55
2023-07-15T22:56:42.057Z,24.63
2023-07-15T22:59:08.977Z,24.46
2023-07-15T23:01:36.129Z,23.82
2023-07-15T23:04:03.192Z,23.79
2023-07-15T23:06:30.094Z,24.30
2023-07-15T23:08:57.013Z,24.52
2023-07-15T23:11:23.908Z,25.01
2023-07-15T23:13:50.774Z,25.05
2023-07-15T23:16:18.881Z,24.71
2023-07-15T23:18:47.568Z,24.91
2023-07-15T23:21:14.825Z,24.63
2023-07-15T23:23:42.789Z,24.88
2023-07-15T23:26:09.701Z,24.77
2023-07-15T23:28:36.647Z,24.03
2023-07-15T23:31:03.593Z,24.35
2023-07-15T23:33:30.490Z,23.79
2023-07-15T23:35:57.419Z,23.70
2023-07-15T23:38:24.448Z,23.95
2023-07-15T23:40:51.775Z,24.25
2023-07-15T23:43:18.633Z,23.74
2023-07-15T23:45:45.493Z,24.05
2023-07-15T23:48:12.446Z,24.29
2023-07-15T23:50:39.381Z,23.87
2023-07-15T23:53:06.365Z,23.70
2023-07-15T23:55:33.290Z,22.73
2023-07-15T23:58:01.171Z,22.83
